Time;durP1;ratioP1;P1;durP2;ratioP2;P2;SDS_P1;SDS_P2;PMS_P1;PMS_P2;Temp;Humidity;BMP_temperature;BMP_pressure;BME280_temperature;BME280_humidity;BME280_pressure;Samples;Min_cycle;Max_cycle;Signal;HPM_P1;HPM_P2
2023/05/15 00:00:09;;;;;;;63.65;24.23;;;;;;;;;;6196600;23;20019;-89
2023/05/15 00:02:48;;;;;;;56.97;26.05;;;;;;;;;;6196304;23;20271;-89
2023/05/15 00:05:19;;;;;;;70.10;26.45;;;;;;;;;;6249334;23;20004;-89
2023/05/15 00:07:46;;;;;;;56.88;21.95;;;;;;;;;;6197116;23;20008;-89
2023/05/15 00:10:20;;;;;;;57.83;24.92;;;;;;;;;;6197671;23;20431;-88
2023/05/15 00:13:02;;;;;;;66.45;27.17;;;;;;;;;;6249346;23;20039;-89
2023/05/15 00:15:37;;;;;;;66.45;27.48;;;;;;;;;;6198381;23;20008;-89
2023/05/15 00:18:04;;;;;;;59.45;26.50;;;;;;;;;;6199772;23;20012;-89
2023/05/15 00:20:31;;;;;;;64.82;28.27;;;;;;;;;;6223760;23;20008;-89
2023/05/15 00:22:58;;;;;;;65.35;28.77;;;;;;;;;;6199099;23;20054;-89
2023/05/15 00:25:28;;;;;;;65.75;29.35;;;;;;;;;;6199328;23;20023;-89
2023/05/15 00:27:54;;;;;;;62.63;28.90;;;;;;;;;;6199553;23;20087;-89
2023/05/15 00:30:20;;;;;;;58.80;26.13;;;;;;;;;;6198128;23;20012;-89
2023/05/15 00:32:46;;;;;;;57.15;26.35;;;;;;;;;;6223714;23;20031;-89
2023/05/15 00:35:13;;;;;;;52.30;26.08;;;;;;;;;;6222757;23;19996;-89
2023/05/15 00:37:42;;;;;;;52.97;25.23;;;;;;;;;;6197375;23;20063;-90
2023/05/15 00:40:10;;;;;;;58.53;27.02;;;;;;;;;;6196937;23;20123;-89
2023/05/15 00:42:39;;;;;;;55.13;25.88;;;;;;;;;;6222697;23;20011;-90
2023/05/15 00:45:08;;;;;;;56.85;26.85;;;;;;;;;;6216380;22;20025;-89
2023/05/15 00:47:36;;;;;;;63.55;26.83;;;;;;;;;;6166835;23;20324;-90
2023/05/15 00:50:02;;;;;;;57.40;26.98;;;;;;;;;;6192788;23;20574;-89
2023/05/15 00:52:31;;;;;;;61.45;26.90;;;;;;;;;;6193770;23;20017;-89
2023/05/15 00:54:57;;;;;;;51.50;25.70;;;;;;;;;;6191965;23;20012;-89
2023/05/15 00:57:23;;;;;;;59.35;25.85;;;;;;;;;;6193658;23;20039;-89
2023/05/15 00:59:57;;;;;;;54.78;24.95;;;;;;;;;;6168544;23;20441;-89
2023/05/15 01:02:23;;;;;;;58.88;25.60;;;;;;;;;;6219707;23;20005;-89
2023/05/15 01:04:55;;;;;;;59.10;26.70;;;;;;;;;;6167540;23;20009;-89
2023/05/15 01:07:26;;;;;;;55.83;26.50;;;;;;;;;;6193311;23;20019;-90
2023/05/15 01:10:03;;;;;;;68.05;29.17;;;;;;;;;;6167562;23;20483;-89
2023/05/15 01:12:30;;;;;;;68.45;27.00;;;;;;;;;;6193269;23;20036;-89
2023/05/15 01:14:56;;;;;;;58.08;26.13;;;;;;;;;;6193043;23;20035;-89
2023/05/15 01:17:22;;;;;;;61.83;26.42;;;;;;;;;;6169103;23;20610;-89
2023/05/15 01:19:51;;;;;;;61.03;26.40;;;;;;;;;;6167387;23;20012;-90
2023/05/15 01:22:22;;;;;;;59.83;26.30;;;;;;;;;;6192381;23;20012;-89
2023/05/15 01:25:07;;;;;;;56.78;24.83;;;;;;;;;;6192999;23;20012;-90
2023/05/15 01:27:39;;;;;;;66.90;26.40;;;;;;;;;;6192698;23;20012;-90
2023/05/15 01:30:15;;;;;;;59.22;27.02;;;;;;;;;;6191722;23;20419;-89
2023/05/15 01:32:59;;;;;;;62.50;26.95;;;;;;;;;;6193274;23;20421;-90
2023/05/15 01:35:32;;;;;;;59.00;25.00;;;;;;;;;;6218881;23;20016;-89
2023/05/15 01:38:16;;;;;;;59.60;27.88;;;;;;;;;;6192640;23;20192;-88
2023/05/15 01:40:45;;;;;;;59.45;26.67;;;;;;;;;;6192691;23;20020;-89
2023/05/15 01:43:18;;;;;;;72.80;30.63;;;;;;;;;;6192871;23;20012;-89
2023/05/15 01:45:47;;;;;;;63.30;28.00;;;;;;;;;;6196455;22;20128;-89
2023/05/15 01:48:17;;;;;;;65.72;29.00;;;;;;;;;;6192090;23;20347;-89
2023/05/15 01:50:45;;;;;;;70.15;28.35;;;;;;;;;;6219739;23;20004;-89
2023/05/15 01:53:14;;;;;;;66.20;28.70;;;;;;;;;;6192215;23;20009;-89
2023/05/15 01:55:44;;;;;;;68.50;27.73;;;;;;;;;;6190162;23;20378;-89
2023/05/15 01:58:10;;;;;;;65.75;26.33;;;;;;;;;;6168368;23;20009;-89
2023/05/15 02:00:37;;;;;;;62.08;26.85;;;;;;;;;;6192765;23;20020;-89
2023/05/15 02:03:05;;;;;;;63.53;26.48;;;;;;;;;;6193455;23;20039;-89
2023/05/15 02:05:33;;;;;;;69.93;28.30;;;;;;;;;;6165917;23;20015;-89
2023/05/15 02:08:03;;;;;;;79.45;28.45;;;;;;;;;;6192908;23;20016;-89
2023/05/15 02:10:35;;;;;;;61.55;26.52;;;;;;;;;;6168855;23;20036;-89
2023/05/15 02:13:01;;;;;;;62.67;27.42;;;;;;;;;;6168868;23;20035;-89
2023/05/15 02:15:29;;;;;;;69.13;29.75;;;;;;;;;;6168002;23;20036;-89
2023/05/15 02:18:03;;;;;;;66.13;29.92;;;;;;;;;;6169369;23;20012;-89
2023/05/15 02:20:30;;;;;;;68.18;29.35;;;;;;;;;;6193752;23;20012;-89
2023/05/15 02:22:56;;;;;;;71.43;30.25;;;;;;;;;;6168140;23;20054;-89
2023/05/15 02:25:27;;;;;;;99.22;30.42;;;;;;;;;;6168893;23;20019;-89
2023/05/15 02:28:00;;;;;;;76.22;28.98;;;;;;;;;;6194946;23;20039;-89
2023/05/15 02:30:29;;;;;;;70.90;28.48;;;;;;;;;;6170689;23;20072;-89
2023/05/15 02:33:11;;;;;;;67.82;27.42;;;;;;;;;;6194819;23;20009;-88
2023/05/15 02:35:41;;;;;;;60.65;27.15;;;;;;;;;;6194254;23;20225;-87
2023/05/15 02:38:09;;;;;;;72.25;28.33;;;;;;;;;;6192968;23;20019;-88
2023/05/15 02:40:37;;;;;;;68.00;27.33;;;;;;;;;;6193827;23;20015;-88
2023/05/15 02:43:06;;;;;;;70.72;28.98;;;;;;;;;;6194421;23;20008;-88
2023/05/15 02:45:36;;;;;;;67.55;28.15;;;;;;;;;;6197232;22;20079;-89
2023/05/15 02:48:06;;;;;;;65.22;26.30;;;;;;;;;;6169844;23;20023;-89
2023/05/15 02:50:32;;;;;;;70.32;27.25;;;;;;;;;;6170226;23;20031;-89
2023/05/15 02:53:06;;;;;;;57.67;25.65;;;;;;;;;;6193624;23;20012;-89
2023/05/15 02:55:32;;;;;;;68.38;27.70;;;;;;;;;;6194764;23;20467;-89
2023/05/15 02:57:59;;;;;;;62.22;26.27;;;;;;;;;;6169021;23;20087;-87
2023/05/15 03:00:28;;;;;;;60.28;25.48;;;;;;;;;;6193229;23;20095;-88
2023/05/15 03:02:54;;;;;;;62.50;26.30;;;;;;;;;;6195861;23;20380;-89
2023/05/15 03:05:20;;;;;;;71.97;25.23;;;;;;;;;;6194008;23;20086;-89
2023/05/15 03:07:47;;;;;;;62.30;26.45;;;;;;;;;;6194638;23;20031;-89
2023/05/15 03:10:16;;;;;;;65.10;27.02;;;;;;;;;;6168521;23;20021;-89
2023/05/15 03:12:42;;;;;;;58.90;25.33;;;;;;;;;;6170853;23;20005;-89
2023/05/15 03:15:08;;;;;;;62.22;25.38;;;;;;;;;;6169189;23;20012;-89
2023/05/15 03:17:40;;;;;;;52.60;22.60;;;;;;;;;;6195556;23;20000;-89
2023/05/15 03:20:09;;;;;;;65.65;23.20;;;;;;;;;;6170114;23;20028;-89
2023/05/15 03:22:39;;;;;;;50.58;23.05;;;;;;;;;;6166957;23;20099;-89
2023/05/15 03:25:06;;;;;;;52.42;21.88;;;;;;;;;;6163645;23;20021;-88
2023/05/15 03:27:32;;;;;;;66.30;24.08;;;;;;;;;;6168934;23;20072;-89
2023/05/15 03:30:00;;;;;;;58.60;20.67;;;;;;;;;;6167203;23;20072;-88
2023/05/15 03:32:29;;;;;;;50.75;21.23;;;;;;;;;;6192458;23;20453;-89
2023/05/15 03:34:58;;;;;;;53.35;21.60;;;;;;;;;;6193049;23;20035;-89
2023/05/15 03:37:25;;;;;;;50.08;21.42;;;;;;;;;;6193329;23;20009;-88
2023/05/15 03:39:54;;;;;;;48.03;22.88;;;;;;;;;;6168937;23;20012;-89
2023/05/15 03:42:23;;;;;;;50.25;20.80;;;;;;;;;;6170817;23;20013;-89
2023/05/15 03:44:49;;;;;;;49.17;19.70;;;;;;;;;;6173648;22;20008;-88
2023/05/15 03:47:31;;;;;;;38.08;18.02;;;;;;;;;;6223808;23;20012;-87
2023/05/15 03:50:01;;;;;;;44.85;19.05;;;;;;;;;;6199691;23;20020;-87
2023/05/15 03:52:38;;;;;;;44.38;19.42;;;;;;;;;;6200153;23;20012;-88
2023/05/15 03:55:05;;;;;;;35.78;17.48;;;;;;;;;;6224716;23;20331;-88
2023/05/15 03:57:32;;;;;;;34.05;17.77;;;;;;;;;;6223582;23;20012;-89
2023/05/15 03:59:58;;;;;;;40.70;19.17;;;;;;;;;;6200303;23;20015;-89
2023/05/15 04:02:34;;;;;;;44.97;18.20;;;;;;;;;;6197194;23;20012;-89
2023/05/15 04:05:05;;;;;;;41.13;18.58;;;;;;;;;;6199183;23;20211;-89
2023/05/15 04:07:34;;;;;;;38.15;18.00;;;;;;;;;;6250318;23;20036;-89
2023/05/15 04:10:01;;;;;;;36.92;18.17;;;;;;;;;;6222834;23;20074;-89
2023/05/15 04:12:28;;;;;;;38.35;18.58;;;;;;;;;;6224048;23;20004;-89
2023/05/15 04:15:38;;;;;;;37.00;19.15;;;;;;;;;;6224185;23;20339;-89
2023/05/15 04:18:16;;;;;;;40.03;19.73;;;;;;;;;;6074963;23;20093;-90
2023/05/15 04:20:45;;;;;;;33.10;17.95;;;;;;;;;;6189077;23;20036;-89
2023/05/15 04:23:16;;;;;;;44.60;18.85;;;;;;;;;;6223309;23;20014;-89
2023/05/15 04:25:47;;;;;;;36.17;19.92;;;;;;;;;;6223726;23;20393;-89
2023/05/15 04:28:21;;;;;;;65.35;23.83;;;;;;;;;;6223833;23;20026;-90
2023/05/15 04:30:49;;;;;;;38.15;21.05;;;;;;;;;;6222444;23;20019;-89
2023/05/15 04:33:25;;;;;;;36.05;18.98;;;;;;;;;;6223543;23;20008;-89
2023/05/15 04:35:52;;;;;;;38.22;19.80;;;;;;;;;;6200048;23;20050;-89
2023/05/15 04:38:22;;;;;;;34.22;19.30;;;;;;;;;;6197888;23;20011;-89
2023/05/15 04:40:50;;;;;;;32.88;19.75;;;;;;;;;;6196718;23;20419;-89
2023/05/15 04:43:17;;;;;;;36.97;18.83;;;;;;;;;;6222934;23;20072;-90
2023/05/15 04:45:45;;;;;;;31.83;18.40;;;;;;;;;;6186703;22;20028;-89
2023/05/15 04:48:20;;;;;;;30.75;17.65;;;;;;;;;;6190512;23;20068;-89
2023/05/15 04:50:50;;;;;;;34.87;16.27;;;;;;;;;;6189935;23;20078;-89
2023/05/15 04:53:17;;;;;;;33.13;17.42;;;;;;;;;;6190140;23;20262;-89
2023/05/15 04:55:43;;;;;;;29.27;15.32;;;;;;;;;;6165156;23;20094;-89
2023/05/15 04:58:17;;;;;;;24.10;14.18;;;;;;;;;;6191508;23;20025;-89
2023/05/15 05:00:43;;;;;;;23.35;15.02;;;;;;;;;;6192099;23;20405;-89
2023/05/15 05:03:10;;;;;;;30.67;16.40;;;;;;;;;;6193714;23;20009;-88
2023/05/15 05:05:36;;;;;;;28.50;15.07;;;;;;;;;;6167444;23;20162;-89
2023/05/15 05:08:02;;;;;;;27.48;14.00;;;;;;;;;;6168217;23;20016;-90
2023/05/15 05:10:30;;;;;;;24.42;14.43;;;;;;;;;;6166989;23;20005;-89
2023/05/15 05:12:56;;;;;;;23.67;13.80;;;;;;;;;;6193888;23;20023;-89
2023/05/15 05:15:40;;;;;;;22.13;13.63;;;;;;;;;;6168808;23;20069;-89
2023/05/15 05:18:12;;;;;;;24.55;11.95;;;;;;;;;;6198466;23;20004;-89
2023/05/15 05:20:38;;;;;;;20.20;10.73;;;;;;;;;;6192798;23;20055;-90
2023/05/15 05:23:07;;;;;;;18.90;10.30;;;;;;;;;;6193676;23;20040;-90
2023/05/15 05:25:36;;;;;;;16.73;10.80;;;;;;;;;;6168621;23;20016;-90
2023/05/15 05:28:02;;;;;;;16.48;10.65;;;;;;;;;;6191943;23;20013;-88
2023/05/15 05:30:32;;;;;;;15.40;9.93;;;;;;;;;;6168609;23;20013;-89
2023/05/15 05:32:58;;;;;;;16.50;10.63;;;;;;;;;;6169567;23;20012;-89
2023/05/15 05:35:27;;;;;;;16.50;10.57;;;;;;;;;;6169297;23;20013;-89
2023/05/15 05:37:55;;;;;;;17.60;10.75;;;;;;;;;;6193314;23;20434;-89
2023/05/15 05:40:21;;;;;;;17.38;10.70;;;;;;;;;;6194360;23;20017;-89
2023/05/15 05:42:48;;;;;;;17.48;11.57;;;;;;;;;;6197147;23;20009;-89
2023/05/15 05:45:20;;;;;;;20.75;11.77;;;;;;;;;;6200391;22;20043;-89
2023/05/15 05:47:46;;;;;;;21.08;11.77;;;;;;;;;;6200765;23;20016;-89
2023/05/15 05:50:14;;;;;;;19.10;11.18;;;;;;;;;;6199991;23;20108;-89
2023/05/15 05:53:17;;;;;;;24.63;13.48;;;;;;;;;;6226706;23;20030;-90
2023/05/15 05:55:44;;;;;;;22.33;13.52;;;;;;;;;;6075679;23;20002;-89
2023/05/15 05:58:11;;;;;;;19.80;12.85;;;;;;;;;;6173170;23;20019;-90
2023/05/15 06:00:38;;;;;;;24.52;13.05;;;;;;;;;;6226691;23;20019;-89
2023/05/15 06:03:04;;;;;;;20.90;12.65;;;;;;;;;;6226029;23;20028;-89
2023/05/15 06:05:30;;;;;;;19.48;12.38;;;;;;;;;;6201549;23;20342;-89
2023/05/15 06:07:59;;;;;;;23.48;12.40;;;;;;;;;;6225084;23;20071;-89
2023/05/15 06:10:26;;;;;;;24.95;12.88;;;;;;;;;;6199530;23;20023;-89
2023/05/15 06:12:52;;;;;;;23.48;13.20;;;;;;;;;;6226749;23;20000;-90
2023/05/15 06:15:27;;;;;;;21.40;12.70;;;;;;;;;;6201992;23;20012;-89
2023/05/15 06:17:58;;;;;;;20.35;12.02;;;;;;;;;;6201899;23;20034;-90
2023/05/15 06:20:27;;;;;;;21.15;11.88;;;;;;;;;;6201715;23;20019;-89
2023/05/15 06:22:54;;;;;;;20.38;12.23;;;;;;;;;;6223884;23;20019;-89
2023/05/15 06:25:21;;;;;;;21.08;12.60;;;;;;;;;;6201203;23;20160;-89
2023/05/15 06:27:48;;;;;;;24.08;14.10;;;;;;;;;;6226609;23;20008;-89
2023/05/15 06:30:35;;;;;;;25.52;15.13;;;;;;;;;;6226189;23;20016;-89
2023/05/15 06:33:01;;;;;;;24.40;14.20;;;;;;;;;;6225356;23;20393;-90
2023/05/15 06:35:27;;;;;;;25.67;14.50;;;;;;;;;;6225092;23;20007;-89
2023/05/15 06:37:56;;;;;;;22.50;13.60;;;;;;;;;;6226540;23;20015;-89
2023/05/15 06:40:23;;;;;;;18.98;12.15;;;;;;;;;;6251471;23;20045;-89
2023/05/15 06:42:49;;;;;;;21.70;10.52;;;;;;;;;;6224964;23;20008;-89
2023/05/15 06:45:15;;;;;;;22.38;10.70;;;;;;;;;;6202252;22;20008;-89
2023/05/15 06:47:48;;;;;;;16.45;9.82;;;;;;;;;;6202819;22;20000;-88
2023/05/15 06:50:20;;;;;;;16.38;10.40;;;;;;;;;;6201892;23;20107;-89
2023/05/15 06:52:46;;;;;;;13.82;9.35;;;;;;;;;;6201290;23;20016;-88
2023/05/15 06:55:13;;;;;;;16.45;9.07;;;;;;;;;;6201772;23;20539;-90
2023/05/15 06:57:42;;;;;;;14.88;8.77;;;;;;;;;;6225860;23;20008;-89
2023/05/15 07:00:20;;;;;;;17.08;8.77;;;;;;;;;;6226534;23;20016;-89
2023/05/15 07:02:46;;;;;;;10.90;7.50;;;;;;;;;;6200643;23;20342;-89
2023/05/15 07:05:15;;;;;;;11.23;7.50;;;;;;;;;;6201992;23;20019;-89
2023/05/15 07:07:42;;;;;;;13.43;7.07;;;;;;;;;;6226076;23;20014;-90
2023/05/15 07:10:18;;;;;;;11.98;6.80;;;;;;;;;;6220788;23;20776;-89
2023/05/15 07:12:50;;;;;;;9.55;6.68;;;;;;;;;;6225745;23;20012;-89
2023/05/15 07:15:16;;;;;;;11.85;7.28;;;;;;;;;;6200700;23;20012;-89
2023/05/15 07:17:43;;;;;;;10.77;7.50;;;;;;;;;;6225540;23;20004;-89
2023/05/15 07:20:25;;;;;;;18.15;7.28;;;;;;;;;;6225319;23;20008;-89
2023/05/15 07:22:54;;;;;;;12.35;6.47;;;;;;;;;;6226570;23;20039;-89
2023/05/15 07:25:25;;;;;;;9.50;7.38;;;;;;;;;;6250670;23;20377;-89
2023/05/15 07:27:51;;;;;;;10.60;7.70;;;;;;;;;;6224276;23;20624;-89
2023/05/15 07:30:32;;;;;;;12.30;6.45;;;;;;;;;;6223379;23;20008;-89
2023/05/15 07:32:59;;;;;;;13.40;8.02;;;;;;;;;;6222723;23;20017;-88
2023/05/15 07:35:29;;;;;;;10.98;7.90;;;;;;;;;;6225099;23;20012;-89
2023/05/15 07:37:55;;;;;;;9.25;6.50;;;;;;;;;;6199660;23;20055;-89
2023/05/15 07:40:34;;;;;;;9.88;6.95;;;;;;;;;;6223063;23;20413;-89
2023/05/15 07:43:00;;;;;;;8.82;6.93;;;;;;;;;;6223149;23;20011;-90
2023/05/15 07:45:26;;;;;;;10.60;6.97;;;;;;;;;;6195911;23;20054;-90
2023/05/15 07:47:57;;;;;;;13.40;7.72;;;;;;;;;;6194749;22;20036;-90
2023/05/15 07:50:24;;;;;;;16.60;7.85;;;;;;;;;;6191813;23;20017;-90
2023/05/15 07:52:50;;;;;;;8.77;6.65;;;;;;;;;;6170110;23;20009;-89
2023/05/15 07:55:16;;;;;;;12.73;8.23;;;;;;;;;;6169893;23;20350;-89
2023/05/15 07:57:44;;;;;;;10.65;6.90;;;;;;;;;;6170730;23;20012;-90
2023/05/15 08:00:10;;;;;;;12.07;6.47;;;;;;;;;;6171591;23;20054;-89
2023/05/15 08:02:40;;;;;;;12.77;7.05;;;;;;;;;;6171141;23;20438;-90
2023/05/15 08:05:06;;;;;;;13.07;7.55;;;;;;;;;;6195969;23;20092;-89
2023/05/15 08:07:36;;;;;;;17.17;8.57;;;;;;;;;;6170692;23;20004;-89
2023/05/15 08:10:04;;;;;;;9.73;7.05;;;;;;;;;;6194557;23;20004;-89
2023/05/15 08:12:31;;;;;;;10.80;6.70;;;;;;;;;;6194511;23;20024;-89
2023/05/15 08:14:57;;;;;;;15.30;7.93;;;;;;;;;;6196029;23;20005;-90
2023/05/15 08:17:34;;;;;;;8.48;6.18;;;;;;;;;;6194179;23;20008;-90
2023/05/15 08:20:02;;;;;;;8.13;6.07;;;;;;;;;;6173627;23;20063;-90
2023/05/15 08:22:29;;;;;;;7.80;6.20;;;;;;;;;;6171167;23;20068;-90
2023/05/15 08:24:58;;;;;;;8.18;6.03;;;;;;;;;;6195321;23;20008;-89
2023/05/15 08:27:35;;;;;;;7.80;6.18;;;;;;;;;;6171468;23;20462;-90
2023/05/15 08:30:04;;;;;;;10.82;7.32;;;;;;;;;;6197893;23;19993;-90
2023/05/15 08:32:47;;;;;;;10.85;7.03;;;;;;;;;;6192890;23;20009;-90
2023/05/15 08:35:15;;;;;;;10.80;6.68;;;;;;;;;;6218919;23;20394;-90
2023/05/15 08:37:42;;;;;;;10.48;6.85;;;;;;;;;;6195864;23;20028;-90
2023/05/15 08:40:11;;;;;;;8.88;6.20;;;;;;;;;;6196677;23;20005;-90
2023/05/15 08:42:47;;;;;;;8.80;6.32;;;;;;;;;;6170309;23;20044;-90
2023/05/15 08:45:15;;;;;;;13.00;5.70;;;;;;;;;;6199111;23;20008;-90
2023/05/15 08:47:42;;;;;;;10.18;7.05;;;;;;;;;;6176724;22;20047;-91
2023/05/15 08:50:18;;;;;;;11.50;6.07;;;;;;;;;;6190719;23;20035;-90
2023/05/15 08:52:45;;;;;;;;;;;;;;;;;;6166249;23;20569;-89
2023/05/15 08:55:13;;;;;;;10.32;7.15;;;;;;;;;;6188279;23;19942;-90
2023/05/15 08:57:40;;;;;;;13.07;6.75;;;;;;;;;;6190077;23;20028;-90
2023/05/15 09:00:12;;;;;;;8.85;6.57;;;;;;;;;;6189082;23;20013;-90
2023/05/15 09:02:44;;;;;;;10.18;6.47;;;;;;;;;;6189034;23;20072;-91
2023/05/15 09:05:10;;;;;;;11.77;6.93;;;;;;;;;;6165201;23;20008;-90
2023/05/15 09:07:39;;;;;;;8.70;6.15;;;;;;;;;;6190757;23;20100;-90
2023/05/15 09:10:18;;;;;;;10.88;6.60;;;;;;;;;;6165874;23;20009;-90
2023/05/15 09:12:45;;;;;;;7.40;5.80;;;;;;;;;;6189525;23;20087;-90
2023/05/15 09:15:21;;;;;;;6.75;5.40;;;;;;;;;;6164092;23;20028;-91
2023/05/15 09:17:51;;;;;;;10.93;5.97;;;;;;;;;;6218343;23;20024;-88
2023/05/15 09:23:30;;;;;;;11.40;6.90;;;;;;;;;;6219413;23;20027;-92
2023/05/15 09:25:56;;;;;;;;;;;;;;;;;;6192922;23;20016;-91
2023/05/15 09:28:26;;;;;;;8.98;6.25;;;;;;;;;;6190627;23;19900;-93
2023/05/15 09:31:17;;;;;;;11.73;5.90;;;;;;;;;;6188061;23;20083;-92
2023/05/15 09:33:49;;;;;;;7.35;5.93;;;;;;;;;;6190779;23;20009;-94
2023/05/15 09:36:21;;;;;;;9.77;6.10;;;;;;;;;;6177255;23;20013;-86
2023/05/15 09:38:57;;;;;;;8.70;6.68;;;;;;;;;;6177373;23;20008;-89
2023/05/15 09:41:26;;;;;;;12.07;6.57;;;;;;;;;;6181757;23;20039;-90
2023/05/15 09:43:55;;;;;;;7.45;5.90;;;;;;;;;;6157768;23;20016;-87
2023/05/15 09:46:21;;;;;;;8.50;6.13;;;;;;;;;;6160760;22;20040;-88
2023/05/15 09:49:05;;;;;;;6.93;6.03;;;;;;;;;;6209329;23;20009;-88
2023/05/15 09:51:33;;;;;;;12.77;5.93;;;;;;;;;;6159558;23;20099;-86
2023/05/15 09:53:59;;;;;;;8.48;5.68;;;;;;;;;;6157524;23;20067;-86
2023/05/15 09:56:34;;;;;;;8.35;6.03;;;;;;;;;;6182522;23;20005;-86
2023/05/15 09:59:14;;;;;;;6.25;5.30;;;;;;;;;;6208301;23;20020;-87
2023/05/15 10:01:45;;;;;;;6.97;5.07;;;;;;;;;;6184081;23;20452;-87
2023/05/15 10:04:13;;;;;;;9.65;5.10;;;;;;;;;;6156872;23;20094;-85
2023/05/15 10:09:32;;;;;;;7.50;3.92;;;;;;;;;;6207167;23;20328;-86
2023/05/15 10:11:58;;;;;;;10.68;5.38;;;;;;;;;;6183932;23;20012;-87
2023/05/15 10:14:26;;;;;;;6.85;4.45;;;;;;;;;;6156875;23;20150;-87
2023/05/15 10:16:52;;;;;;;7.70;4.47;;;;;;;;;;6182142;23;20008;-87
2023/05/15 10:19:26;;;;;;;5.38;4.05;;;;;;;;;;6157077;23;20383;-85
2023/05/15 10:21:53;;;;;;;5.97;4.20;;;;;;;;;;6184101;23;20008;-87
2023/05/15 10:24:20;;;;;;;8.40;4.13;;;;;;;;;;6205043;23;20004;-86
2023/05/15 10:26:46;;;;;;;7.47;4.68;;;;;;;;;;6182048;23;20086;-86
2023/05/15 10:29:13;;;;;;;9.38;4.65;;;;;;;;;;6158663;23;20044;-86
2023/05/15 10:31:42;;;;;;;9.55;4.60;;;;;;;;;;6181810;23;20058;-87
2023/05/15 10:34:12;;;;;;;7.15;4.32;;;;;;;;;;6157533;23;20351;-86
2023/05/15 10:36:38;;;;;;;7.38;4.50;;;;;;;;;;6181333;23;20000;-86
2023/05/15 10:39:14;;;;;;;6.88;4.68;;;;;;;;;;6181909;23;20120;-85
2023/05/15 10:41:41;;;;;;;5.43;4.70;;;;;;;;;;6212110;23;20012;-85
2023/05/15 10:44:07;;;;;;;11.60;5.47;;;;;;;;;;6184951;23;20016;-86
2023/05/15 10:46:37;;;;;;;8.48;4.43;;;;;;;;;;6187731;22;20024;-87
2023/05/15 10:49:03;;;;;;;7.35;4.72;;;;;;;;;;6175557;23;20517;-86
2023/05/15 10:51:32;;;;;;;5.93;4.18;;;;;;;;;;6206330;23;20383;-86
2023/05/15 10:53:59;;;;;;;7.15;5.10;;;;;;;;;;6178590;23;20365;-86
2023/05/15 10:56:37;;;;;;;6.80;4.80;;;;;;;;;;6177478;23;20342;-86
2023/05/15 10:59:07;;;;;;;6.85;4.90;;;;;;;;;;6177502;23;20026;-86
2023/05/15 11:01:34;;;;;;;8.27;4.97;;;;;;;;;;6155547;23;20013;-86
2023/05/15 11:04:06;;;;;;;6.03;4.47;;;;;;;;;;6176872;23;20707;-86
2023/05/15 11:06:32;;;;;;;8.98;4.57;;;;;;;;;;6177327;23;20502;-86
2023/05/15 11:09:17;;;;;;;5.70;4.55;;;;;;;;;;6150794;23;20506;-86
2023/05/15 11:11:59;;;;;;;5.57;4.40;;;;;;;;;;6206535;23;20055;-86
2023/05/15 11:14:29;;;;;;;8.38;5.82;;;;;;;;;;6155191;23;20510;-86
2023/05/15 11:16:57;;;;;;;9.27;4.85;;;;;;;;;;6177850;23;20011;-86
2023/05/15 11:19:23;;;;;;;8.20;5.05;;;;;;;;;;6179439;23;20004;-86
2023/05/15 11:22:12;;;;;;;7.53;4.90;;;;;;;;;;6204171;23;20223;-86
2023/05/15 11:25:05;;;;;;;10.43;5.22;;;;;;;;;;6109101;23;20020;-86
2023/05/15 11:27:33;;;;;;;6.47;4.60;;;;;;;;;;6169305;23;20009;-85
2023/05/15 11:30:12;;;;;;;10.40;5.32;;;;;;;;;;6174079;23;20013;-86
2023/05/15 11:32:42;;;;;;;9.88;6.32;;;;;;;;;;6153149;23;20498;-86
2023/05/15 11:35:11;;;;;;;6.45;5.32;;;;;;;;;;6177013;23;20009;-86
2023/05/15 11:37:42;;;;;;;8.55;5.65;;;;;;;;;;6177031;23;20345;-86
2023/05/15 11:40:12;;;;;;;8.00;5.55;;;;;;;;;;6204979;23;20568;-86
2023/05/15 11:42:39;;;;;;;10.40;5.25;;;;;;;;;;6175977;23;20015;-86
2023/05/15 11:45:07;;;;;;;6.82;4.78;;;;;;;;;;6152439;23;20593;-86
2023/05/15 11:47:33;;;;;;;7.28;5.57;;;;;;;;;;6178599;22;20024;-86
2023/05/15 11:49:59;;;;;;;12.93;6.03;;;;;;;;;;6152607;23;20071;-92
2023/05/15 11:52:36;;;;;;;9.18;5.00;;;;;;;;;;6194758;23;20004;-89
2023/05/15 11:55:03;;;;;;;6.65;5.18;;;;;;;;;;6167464;23;20043;-92
2023/05/15 11:57:29;;;;;;;9.73;5.35;;;;;;;;;;6191943;23;20031;-91
2023/05/15 11:59:55;;;;;;;8.75;5.55;;;;;;;;;;6191201;23;20004;-92
2023/05/15 12:02:23;;;;;;;10.95;5.80;;;;;;;;;;6164311;23;20012;-91
2023/05/15 12:04:50;;;;;;;10.07;6.60;;;;;;;;;;6162032;23;20019;-91
2023/05/15 12:07:17;;;;;;;6.85;5.18;;;;;;;;;;6188009;23;20013;-91
2023/05/15 12:10:02;;;;;;;10.50;5.32;;;;;;;;;;6187381;23;20420;-92
2023/05/15 12:12:29;;;;;;;6.80;5.18;;;;;;;;;;6189578;23;20005;-90
2023/05/15 12:14:58;;;;;;;11.50;6.10;;;;;;;;;;6163438;23;20004;-92
2023/05/15 12:17:25;;;;;;;9.32;5.25;;;;;;;;;;6191204;23;20088;-92
2023/05/15 12:19:51;;;;;;;5.47;4.60;;;;;;;;;;6165189;23;20012;-92
2023/05/15 12:22:18;;;;;;;7.90;5.30;;;;;;;;;;6165993;23;20027;-91
2023/05/15 12:24:47;;;;;;;8.65;6.13;;;;;;;;;;6189488;23;20059;-92
2023/05/15 12:27:15;;;;;;;10.07;6.28;;;;;;;;;;6165526;23;20024;-93
2023/05/15 12:29:41;;;;;;;8.95;6.07;;;;;;;;;;6164759;23;20023;-91
2023/05/15 12:32:08;;;;;;;8.25;6.45;;;;;;;;;;6165252;23;20012;-92
2023/05/15 12:34:34;;;;;;;9.57;7.15;;;;;;;;;;6164320;23;20036;-91
2023/05/15 12:37:01;;;;;;;11.65;6.70;;;;;;;;;;6167326;23;20012;-92
2023/05/15 12:39:27;;;;;;;11.77;5.93;;;;;;;;;;6189962;23;20062;-92
2023/05/15 12:41:53;;;;;;;10.00;6.25;;;;;;;;;;6165743;23;20227;-91
2023/05/15 12:44:22;;;;;;;10.85;7.05;;;;;;;;;;6165206;23;20012;-91
2023/05/15 12:46:54;;;;;;;8.48;6.85;;;;;;;;;;6189956;22;20016;-92
2023/05/15 12:49:38;;;;;;;12.75;6.82;;;;;;;;;;6189842;23;20020;-91
2023/05/15 12:52:08;;;;;;;10.15;6.30;;;;;;;;;;6165011;23;20127;-91
2023/05/15 12:54:39;;;;;;;7.78;6.00;;;;;;;;;;6186488;23;20004;-91
2023/05/15 12:57:05;;;;;;;8.40;6.85;;;;;;;;;;6186535;23;20020;-91
2023/05/15 12:59:31;;;;;;;8.10;6.53;;;;;;;;;;6161679;23;20410;-91
2023/05/15 13:01:57;;;;;;;9.05;5.75;;;;;;;;;;6162625;23;20013;-91
2023/05/15 13:04:27;;;;;;;9.02;6.05;;;;;;;;;;6188692;23;20009;-90
2023/05/15 13:06:53;;;;;;;8.50;5.00;;;;;;;;;;6186673;23;20322;-92
2023/05/15 13:09:25;;;;;;;10.95;5.55;;;;;;;;;;6188289;23;20064;-92
2023/05/15 13:11:55;;;;;;;6.88;5.38;;;;;;;;;;6162972;23;20386;-91
2023/05/15 13:14:25;;;;;;;9.95;5.82;;;;;;;;;;6218049;23;20004;-92
2023/05/15 13:16:54;;;;;;;5.32;4.32;;;;;;;;;;6187836;23;20001;-91
2023/05/15 13:19:23;;;;;;;10.68;4.75;;;;;;;;;;6188199;23;20005;-90
2023/05/15 13:21:50;;;;;;;5.10;3.78;;;;;;;;;;6163405;23;20386;-91
2023/05/15 13:24:16;;;;;;;4.68;3.95;;;;;;;;;;6165181;23;20008;-91
2023/05/15 13:26:42;;;;;;;9.27;3.92;;;;;;;;;;6164299;23;20372;-91
2023/05/15 13:29:08;;;;;;;9.82;3.97;;;;;;;;;;6161128;23;20066;-91
2023/05/15 13:31:40;;;;;;;4.70;3.80;;;;;;;;;;6167894;23;20005;-92
2023/05/15 13:34:06;;;;;;;4.72;3.53;;;;;;;;;;6188773;23;20020;-89
2023/05/15 13:36:33;;;;;;;8.40;3.83;;;;;;;;;;6187228;23;20005;-89
2023/05/15 13:38:59;;;;;;;6.78;4.28;;;;;;;;;;6189354;23;20235;-91
2023/05/15 13:41:25;;;;;;;5.90;4.15;;;;;;;;;;6161608;23;20016;-91
2023/05/15 13:43:53;;;;;;;5.47;3.70;;;;;;;;;;6186654;23;20307;-90
2023/05/15 13:46:19;;;;;;;9.70;4.80;;;;;;;;;;6166712;22;20031;-91
2023/05/15 13:48:45;;;;;;;5.20;4.07;;;;;;;;;;6217033;23;20016;-90
2023/05/15 13:51:14;;;;;;;5.68;4.22;;;;;;;;;;6196587;23;20472;-91
2023/05/15 13:53:40;;;;;;;6.80;3.83;;;;;;;;;;6194148;23;20015;-90
2023/05/15 13:56:06;;;;;;;4.75;3.53;;;;;;;;;;6192010;23;20032;-89
2023/05/15 13:58:32;;;;;;;8.15;4.18;;;;;;;;;;6192926;23;20015;-90
2023/05/15 14:00:58;;;;;;;4.90;4.00;;;;;;;;;;6220672;23;20008;-90
2023/05/15 14:03:24;;;;;;;9.98;4.05;;;;;;;;;;6222329;23;20008;-89
2023/05/15 14:05:51;;;;;;;6.50;4.25;;;;;;;;;;6223142;23;20012;-90
2023/05/15 14:08:18;;;;;;;7.20;4.53;;;;;;;;;;6248169;23;20054;-90
2023/05/15 14:10:45;;;;;;;7.65;4.60;;;;;;;;;;6221841;23;20077;-91
2023/05/15 14:13:11;;;;;;;8.20;4.03;;;;;;;;;;6199551;23;20012;-91
2023/05/15 14:15:37;;;;;;;5.70;4.20;;;;;;;;;;6197008;23;20103;-90
2023/05/15 14:18:06;;;;;;;8.15;4.60;;;;;;;;;;6198458;23;20015;-91
2023/05/15 14:20:35;;;;;;;4.57;3.70;;;;;;;;;;6196447;23;20012;-90
2023/05/15 14:23:01;;;;;;;6.63;4.47;;;;;;;;;;6198364;23;20016;-90
2023/05/15 14:25:27;;;;;;;8.05;4.65;;;;;;;;;;6198772;23;20020;-91
2023/05/15 14:27:53;;;;;;;5.68;3.63;;;;;;;;;;6219128;23;20016;-91
2023/05/15 14:30:19;;;;;;;7.07;4.30;;;;;;;;;;6220576;23;20004;-90
2023/05/15 14:32:48;;;;;;;5.95;3.97;;;;;;;;;;6194908;23;20004;-90
2023/05/15 14:35:14;;;;;;;6.45;4.40;;;;;;;;;;6195846;23;20074;-90
2023/05/15 14:37:41;;;;;;;7.97;4.88;;;;;;;;;;6220342;23;20401;-90
2023/05/15 14:40:11;;;;;;;8.02;3.65;;;;;;;;;;6246209;23;20456;-90
2023/05/15 14:42:37;;;;;;;7.70;4.10;;;;;;;;;;6194961;23;20016;-90
2023/05/15 14:45:03;;;;;;;6.13;3.88;;;;;;;;;;6197038;23;20008;-90
2023/05/15 14:47:29;;;;;;;5.97;3.75;;;;;;;;;;6200494;22;20024;-91